Terminal Aerodrome Forecast
Issued by NWS Shreveport, LA

Home | Current Version | Previous Version | Text Only | Print | Product List | Glossary On
Versions: 1 2 3 4 5 6 7 8 9 10 11 12 13 14 15 16 17
539
FTUS44 KSHV 291145
TAFELD
TAF
KELD 291145Z 2912/3012 00000KT 6SM BR BKN250
     FM291400 VRB03KT P6SM SCT045 BKN150
     FM291800 28005KT P6SM BKN050 BKN250
     FM292100 33006KT P6SM BKN150
     FM300200 VRB03KT P6SM OVC250=

USA.gov is the U.S. government's official web portal to all federal, state and local government web resources and services.